Urbana, Illinois
Current Conditions -  °F | °C
As of 7:53 PM on Wednesday 17 Dec 2014 (Local Time) from KCMI Reporting Station
Overcast Overcast  
Wind Chill: -8°   Ceiling: 1900
Heat Index: -4°   Visibility: 10mi
Dew Point: -7°   Wind: 5mph
Humidity: 81%   Direction: 290°WNW
Pressure: 30.29"   Gusts: NA
Location:  40.12°N, 88.2°W
Report Text: KCMI 180153Z 29004KT 10SM OVC019 M04/M07 A3029 RMK AO2 SLP268 T10441072
Loading
Personal Weather Stations






























Interactive Weather Map New forecast layout! Learn more

10-Day Weather Forecast

Advertisements
Track Severe Weather on mobile